createdAt,value
2023-04-22T00:00:03.199Z,12.8
2023-04-22T00:15:02.616Z,12.4
2023-04-22T00:30:03.204Z,11.9
2023-04-22T00:45:02.518Z,11.6
2023-04-22T01:00:03.206Z,11.5
2023-04-22T01:15:04.771Z,11.2
2023-04-22T01:30:02.873Z,10.7
2023-04-22T01:45:02.337Z,10.0
2023-04-22T02:00:02.738Z,9.4
2023-04-22T02:15:03.232Z,9.1
2023-04-22T02:30:02.644Z,8.7
2023-04-22T02:45:03.254Z,8.3
2023-04-22T03:00:02.442Z,7.9
2023-04-22T03:15:02.913Z,7.7
2023-04-22T03:30:02.338Z,7.8
2023-04-22T03:45:02.806Z,7.9
2023-04-22T04:00:03.241Z,7.9
2023-04-22T04:15:02.642Z,8.0
2023-04-22T04:30:02.260Z,8.1
2023-04-22T04:45:02.548Z,8.3
2023-04-22T05:00:02.994Z,8.3
2023-04-22T05:15:02.430Z,8.5
2023-04-22T05:30:02.917Z,8.8
2023-04-22T05:45:02.374Z,9.0
2023-04-22T06:00:02.778Z,9.8
2023-04-22T06:15:03.268Z,10.4
2023-04-22T06:30:02.608Z,11.0
2023-04-22T06:45:03.282Z,11.6
2023-04-22T07:00:02.530Z,12.3
2023-04-22T07:15:02.977Z,12.9
2023-04-22T07:30:02.411Z,13.7
2023-04-22T07:45:02.841Z,14.5
2023-04-22T08:00:02.282Z,15.6
2023-04-22T08:15:02.713Z,16.9
2023-04-22T08:30:03.302Z,17.8
2023-04-22T08:45:02.620Z,19.5
2023-04-22T09:00:03.020Z,20.2
2023-04-22T09:15:02.454Z,21.1
2023-04-22T09:30:02.878Z,22.6
2023-04-22T09:45:02.526Z,22.7
2023-04-22T10:00:02.769Z,22.8
2023-04-22T10:15:03.564Z,23.4
2023-04-22T10:30:02.639Z,23.5
2023-04-22T10:45:03.322Z,23.5
2023-04-22T11:00:02.533Z,23.9
2023-04-22T11:15:02.959Z,24.2
2023-04-22T11:30:02.398Z,24.5
2023-04-22T11:45:02.838Z,24.9
2023-04-22T12:00:02.323Z,25.6
2023-04-22T12:15:02.714Z,25.4
2023-04-22T12:30:02.346Z,26.0
2023-04-22T12:45:02.601Z,26.6
2023-04-22T13:00:03.007Z,25.6
2023-04-22T13:15:02.463Z,25.8
2023-04-22T13:30:02.899Z,26.2
2023-04-22T13:45:02.369Z,24.1
2023-04-22T14:00:02.746Z,22.8
2023-04-22T14:15:03.332Z,22.4
2023-04-22T14:30:02.628Z,24.1
2023-04-22T14:45:03.064Z,24.7
2023-04-22T15:00:02.500Z,24.3
2023-04-22T15:15:02.955Z,23.2
2023-04-22T15:30:02.392Z,22.5
2023-04-22T15:45:04.056Z,21.7
2023-04-22T16:00:11.150Z,21.2
2023-04-22T16:15:02.695Z,20.7
2023-04-22T16:30:03.417Z,20.3
2023-04-22T16:45:02.595Z,19.2
2023-04-22T17:00:03.068Z,18.1
2023-04-22T17:15:02.470Z,17.2
2023-04-22T17:30:02.929Z,16.6
2023-04-22T17:45:02.494Z,16.4
2023-04-22T18:00:02.790Z,16.1
2023-04-22T18:15:03.388Z,15.8
2023-04-22T18:30:02.688Z,15.4
2023-04-22T18:45:04.599Z,15.2
2023-04-22T19:00:02.562Z,15.2
2023-04-22T19:15:02.977Z,15.2
2023-04-22T19:30:02.402Z,15.0
2023-04-22T19:45:02.873Z,14.6
2023-04-22T20:00:02.415Z,14.3
2023-04-22T20:15:02.728Z,14.1
2023-04-22T20:30:03.427Z,14.1
2023-04-22T20:45:02.624Z,13.8
2023-04-22T21:00:03.046Z,13.8
2023-04-22T21:15:02.506Z,13.5
2023-04-22T21:30:02.959Z,13.4
2023-04-22T21:45:02.475Z,13.6
2023-04-22T22:00:02.786Z,13.4
2023-04-22T22:15:02.429Z,13.1
2023-04-22T22:30:02.655Z,12.8
2023-04-22T22:45:03.110Z,12.7
2023-04-22T23:00:02.544Z,12.3
2023-04-22T23:15:02.991Z,12.0
2023-04-22T23:30:02.460Z,11.8
2023-04-22T23:45:02.866Z,11.4
